Time;durP1;ratioP1;P1;durP2;ratioP2;P2;SDS_P1;SDS_P2;PMS_P1;PMS_P2;Temp;Humidity;BMP_temperature;BMP_pressure;BME280_temperature;BME280_humidity;BME280_pressure;Samples;Min_cycle;Max_cycle;Signal;HPM_P1;HPM_P2
2023/03/26 00:03:04;;;;;;;1.60;1.00;;;7.40;22.70;;;;;;8302830;28;20183;-82
2023/03/26 00:07:05;;;;;;;5.00;1.13;;;7.40;12.80;;;;;;8306102;28;20214;-82
2023/03/26 00:11:09;;;;;;;4.23;0.80;;;7.50;1.00;;;;;;8306398;28;20186;-83
2023/03/26 00:15:10;;;;;;;2.43;0.90;;;7.60;1.00;;;;;;8301899;28;20179;-82
2023/03/26 00:19:11;;;;;;;2.90;1.07;;;7.70;1.00;;;;;;8308377;28;20656;-81
2023/03/26 00:23:13;;;;;;;3.97;1.20;;;7.70;1.00;;;;;;8308633;28;20213;-82
2023/03/26 00:27:13;;;;;;;3.37;1.20;;;7.60;1.00;;;;;;8309387;28;20349;-83
2023/03/26 00:31:14;;;;;;;1.40;0.80;;;7.50;9.80;;;;;;8300003;28;20217;-81
2023/03/26 00:35:15;;;;;;;2.00;1.03;;;7.40;85.20;;;;;;8300267;28;20210;-81
2023/03/26 00:39:16;;;;;;;2.13;0.90;;;7.30;99.90;;;;;;8304007;28;20191;-82
2023/03/26 00:43:19;;;;;;;4.03;1.30;;;7.30;99.90;;;;;;8311875;28;20209;-83
2023/03/26 00:47:21;;;;;;;1.53;1.13;;;7.20;99.90;;;;;;8301634;28;20282;-83
2023/03/26 00:51:22;;;;;;;2.87;1.00;;;7.00;99.90;;;;;;8305126;28;20182;-84
2023/03/26 00:55:23;;;;;;;3.87;1.10;;;7.00;99.90;;;;;;8304046;28;20195;-83
2023/03/26 00:59:24;;;;;;;2.13;1.00;;;7.10;99.90;;;;;;8322070;28;20194;-82
2023/03/26 01:03:32;;;;;;;2.70;1.10;;;7.20;99.90;;;;;;8302592;28;20179;-81
2023/03/26 01:07:34;;;;;;;5.40;1.83;;;7.30;99.90;;;;;;8302255;28;20256;-83
2023/03/26 01:11:34;;;;;;;2.53;1.20;;;7.50;99.90;;;;;;8304682;28;20187;-83
2023/03/26 01:15:38;;;;;;;2.67;1.60;;;7.50;82.80;;;;;;8305561;28;20273;-83
2023/03/26 01:20:12;;;;;;;4.83;1.83;;;7.50;92.10;;;;;;8308228;28;20198;-83
2023/03/26 01:24:14;;;;;;;2.77;1.60;;;7.60;91.50;;;;;;8296663;28;20211;-82
2023/03/26 01:28:17;;;;;;;3.23;1.20;;;7.60;98.10;;;;;;8307694;28;20215;-82
2023/03/26 01:32:22;;;;;;;4.70;1.40;;;7.70;99.90;;;;;;8304657;28;20281;-83
2023/03/26 01:36:27;;;;;;;2.67;1.17;;;7.70;99.90;;;;;;8297692;28;20203;-82
2023/03/26 01:40:41;;;;;;;3.70;1.83;;;7.70;99.90;;;;;;8305379;28;20195;-82
2023/03/26 01:44:55;;;;;;;2.17;1.13;;;7.70;1.00;;;;;;8317652;28;20210;-82
2023/03/26 01:48:56;;;;;;;4.63;1.53;;;7.60;1.00;;;;;;8305710;28;20190;-82
2023/03/26 01:52:57;;;;;;;4.10;1.40;;;7.60;1.00;;;;;;8300640;28;20189;-81
2023/03/26 01:57:14;;;;;;;4.00;1.10;;;7.50;99.90;;;;;;8301491;28;20194;-82
2023/03/26 02:01:43;;;;;;;3.63;1.30;;;7.40;99.90;;;;;;8305748;28;20195;-82
2023/03/26 02:05:51;;;;;;;4.53;1.77;;;7.30;99.90;;;;;;8316930;28;20221;-83
2023/03/26 02:09:58;;;;;;;2.37;1.23;;;7.30;1.00;;;;;;8317037;28;20219;-84
2023/03/26 02:13:59;;;;;;;2.37;1.07;;;7.30;99.90;;;;;;8325437;28;20258;-83
2023/03/26 02:18:00;;;;;;;3.37;1.33;;;7.30;99.90;;;;;;8316475;28;20212;-82
2023/03/26 02:22:01;;;;;;;2.40;0.70;;;7.30;99.90;;;;;;8307812;28;20190;-84
2023/03/26 02:26:05;;;;;;;2.73;0.90;;;7.30;99.90;;;;;;8308174;28;20206;-82
2023/03/26 02:30:10;;;;;;;2.10;1.03;;;7.30;99.90;;;;;;8315218;28;20195;-82
2023/03/26 02:34:11;;;;;;;1.97;0.90;;;7.30;99.90;;;;;;8307574;28;20203;-81
2023/03/26 02:38:13;;;;;;;3.40;0.90;;;7.20;99.90;;;;;;8308125;28;20217;-83
2023/03/26 02:42:15;;;;;;;1.83;0.87;;;7.30;99.90;;;;;;8314412;28;20190;-82
2023/03/26 02:46:15;;;;;;;2.23;1.10;;;7.30;99.90;;;;;;8307859;28;20245;-84
2023/03/26 02:50:16;;;;;;;1.73;0.83;;;7.30;12.60;;;;;;8306948;28;20179;-82
2023/03/26 02:54:17;;;;;;;1.97;1.17;;;7.40;1.00;;;;;;8307373;28;20576;-82
2023/03/26 02:58:18;;;;;;;3.00;0.93;;;7.40;1.00;;;;;;8309421;28;20190;-83
2023/03/26 03:02:21;;;;;;;1.20;1.00;;;7.40;1.00;;;;;;8311140;28;20198;-83
2023/03/26 03:06:25;;;;;;;3.53;0.90;;;7.40;99.90;;;;;;8307355;28;20265;-82
2023/03/26 03:10:27;;;;;;;2.47;1.00;;;7.40;99.90;;;;;;8309129;28;20190;-82
2023/03/26 03:14:27;;;;;;;1.40;0.70;;;7.50;99.90;;;;;;8312693;28;20191;-81
2023/03/26 03:18:28;;;;;;;3.23;0.70;;;7.40;99.90;;;;;;8308461;28;20206;-83
2023/03/26 03:22:29;;;;;;;1.90;0.60;;;7.40;1.00;;;;;;8306144;28;20257;-83
2023/03/26 03:26:30;;;;;;;3.43;0.93;;;7.50;1.00;;;;;;8308604;28;20210;-82
2023/03/26 03:30:30;;;;;;;1.60;0.83;;;7.40;1.00;;;;;;8310334;28;20187;-82
2023/03/26 03:34:31;;;;;;;2.67;0.67;;;7.40;1.00;;;;;;8308832;28;20199;-82
2023/03/26 03:38:32;;;;;;;2.00;0.90;;;7.40;1.00;;;;;;8311470;28;20178;-82
2023/03/26 03:42:33;;;;;;;1.33;0.70;;;7.40;1.00;;;;;;8302143;28;20179;-83
2023/03/26 03:46:34;;;;;;;2.07;0.90;;;7.40;1.00;;;;;;8311647;28;20221;-83
2023/03/26 03:50:35;;;;;;;1.03;0.50;;;7.30;1.00;;;;;;8311336;28;20193;-83
2023/03/26 03:54:36;;;;;;;1.50;0.60;;;7.30;1.00;;;;;;8306372;28;20191;-84
2023/03/26 03:58:37;;;;;;;1.97;0.80;;;7.20;1.00;;;;;;8309803;28;20531;-83
2023/03/26 04:02:41;;;;;;;1.23;0.53;;;7.10;1.00;;;;;;8302970;28;20195;-83
2023/03/26 04:06:43;;;;;;;1.97;0.57;;;7.00;1.00;;;;;;8317517;28;20218;-84
2023/03/26 04:10:44;;;;;;;1.67;0.87;;;6.90;83.60;;;;;;8309629;28;20194;-83
2023/03/26 04:14:45;;;;;;;2.10;1.10;;;6.90;99.90;;;;;;8304960;28;20186;-82
2023/03/26 04:18:46;;;;;;;1.00;0.90;;;7.00;99.90;;;;;;8301508;28;20640;-82
2023/03/26 04:22:46;;;;;;;1.57;0.77;;;7.00;99.90;;;;;;8308963;28;20194;-83
2023/03/26 04:26:48;;;;;;;1.80;0.80;;;7.00;99.90;;;;;;8299984;28;20214;-82
2023/03/26 04:30:52;;;;;;;1.37;0.63;;;7.10;99.90;;;;;;8301074;28;20206;-82
2023/03/26 04:34:53;;;;;;;1.30;0.80;;;7.10;99.90;;;;;;8307505;28;20225;-83
2023/03/26 04:38:57;;;;;;;2.67;1.17;;;7.00;99.90;;;;;;8307719;28;20627;-82
2023/03/26 04:43:01;;;;;;;1.40;0.73;;;7.00;99.90;;;;;;8299633;28;20191;-81
2023/03/26 04:47:02;;;;;;;2.10;0.97;;;7.00;99.90;;;;;;8302169;28;20215;-82
2023/03/26 04:51:05;;;;;;;1.07;0.90;;;7.00;1.00;;;;;;8311497;28;20187;-83
2023/03/26 04:55:18;;;;;;;2.43;1.00;;;7.10;1.00;;;;;;8307851;28;20198;-83
2023/03/26 04:59:29;;;;;;;1.03;0.73;;;7.20;99.90;;;;;;8309023;28;20273;-79
2023/03/26 05:03:30;;;;;;;0.97;0.77;;;7.20;99.90;;;;;;8337364;28;20187;-79
2023/03/26 05:07:32;;;;;;;2.03;0.90;;;7.30;99.90;;;;;;8339873;28;20226;-79
2023/03/26 05:11:32;;;;;;;2.60;1.03;;;7.50;99.90;;;;;;8351455;28;20178;-79
2023/03/26 05:15:33;;;;;;;1.63;0.80;;;7.50;99.90;;;;;;8342702;28;20184;-79
2023/03/26 05:19:34;;;;;;;2.10;0.90;;;7.60;99.90;;;;;;8302974;28;20191;-79
2023/03/26 05:23:35;;;;;;;1.43;0.80;;;7.60;99.90;;;;;;8304869;28;20401;-79
2023/03/26 05:27:36;;;;;;;1.47;0.97;;;7.60;99.90;;;;;;8307712;28;20256;-79
2023/03/26 05:31:37;;;;;;;1.50;0.90;;;7.60;97.70;;;;;;8298252;28;20179;-79
2023/03/26 05:35:38;;;;;;;3.13;1.07;;;7.70;99.90;;;;;;8310652;28;20211;-79
2023/03/26 05:39:40;;;;;;;1.27;0.80;;;7.70;29.80;;;;;;8307405;28;20237;-79
2023/03/26 05:43:41;;;;;;;3.87;1.10;;;7.80;29.20;;;;;;8298110;28;20187;-79
2023/03/26 05:47:42;;;;;;;1.43;0.77;;;7.90;1.00;;;;;;8317345;28;20211;-80
2023/03/26 05:51:42;;;;;;;1.57;0.70;;;8.00;1.00;;;;;;8301977;28;20183;-79
2023/03/26 05:55:45;;;;;;;0.87;0.60;;;8.10;1.00;;;;;;8309249;28;20189;-80
2023/03/26 05:59:45;;;;;;;2.93;1.10;;;8.20;1.00;;;;;;8305841;28;20186;-80
2023/03/26 06:03:47;;;;;;;2.23;0.90;;;8.10;1.00;;;;;;8302410;28;20186;-78
2023/03/26 06:07:48;;;;;;;1.43;0.80;;;8.00;99.90;;;;;;8301766;28;20281;-78
2023/03/26 06:11:49;;;;;;;1.33;0.67;;;7.70;99.90;;;;;;8306028;28;20175;-78
2023/03/26 06:15:50;;;;;;;1.40;0.70;;;7.60;99.90;;;;;;8313493;28;20198;-78
2023/03/26 06:19:50;;;;;;;3.43;1.07;;;7.50;99.90;;;;;;8315775;28;20221;-78
2023/03/26 06:23:52;;;;;;;2.67;1.10;;;7.50;1.00;;;;;;8311647;28;20656;-78
2023/03/26 06:27:52;;;;;;;2.27;1.20;;;7.70;1.00;;;;;;8308310;28;20219;-78
2023/03/26 06:31:53;;;;;;;2.17;1.10;;;8.00;99.90;;;;;;8314478;28;20195;-78
2023/03/26 06:35:55;;;;;;;1.00;0.83;;;8.40;99.90;;;;;;8305500;28;20349;-79
2023/03/26 06:39:55;;;;;;;3.20;1.20;;;8.60;1.00;;;;;;8314428;28;20205;-79
2023/03/26 06:43:56;;;;;;;1.93;0.97;;;8.70;1.00;;;;;;8306502;28;20195;-80
2023/03/26 06:47:57;;;;;;;2.03;0.90;;;8.70;1.00;;;;;;8309532;28;20228;-78
2023/03/26 06:51:58;;;;;;;2.57;1.10;;;8.60;1.00;;;;;;8305026;28;20191;-78
2023/03/26 06:55:59;;;;;;;1.63;0.80;;;8.80;1.00;;;;;;8303682;28;20198;-78
2023/03/26 07:00:00;;;;;;;1.23;0.97;;;9.10;99.90;;;;;;8309451;28;20187;-78
2023/03/26 07:04:00;;;;;;;5.33;0.93;;;9.30;99.90;;;;;;8304436;28;20191;-78
2023/03/26 07:08:02;;;;;;;1.80;0.80;;;9.10;99.90;;;;;;8310579;28;20219;-79
2023/03/26 07:12:03;;;;;;;3.17;1.13;;;8.90;1.00;;;;;;8305983;28;20317;-79
2023/03/26 07:16:04;;;;;;;2.70;0.83;;;8.70;1.00;;;;;;8304264;28;20205;-79
2023/03/26 07:20:08;;;;;;;2.10;0.93;;;8.70;1.00;;;;;;8306616;28;20216;-80
2023/03/26 07:24:12;;;;;;;2.37;0.97;;;8.70;1.00;;;;;;8306144;28;20199;-79
2023/03/26 07:28:31;;;;;;;1.47;0.83;;;8.70;44.50;;;;;;8313914;28;20211;-79
2023/03/26 07:32:49;;;;;;;1.37;1.27;;;8.20;24.70;;;;;;8308553;28;20183;-79
2023/03/26 07:37:26;;;;;;;1.80;0.90;;;7.70;1.00;;;;;;8303826;28;20297;-78
2023/03/26 07:41:49;;;;;;;2.33;1.10;;;7.30;99.90;;;;;;8276869;28;20198;-78
2023/03/26 07:45:52;;;;;;;2.13;0.80;;;7.10;99.90;;;;;;8310722;28;20319;-79
2023/03/26 07:49:56;;;;;;;3.40;1.10;;;7.20;99.90;;;;;;8319647;28;20273;-79
2023/03/26 07:54:02;;;;;;;1.47;0.97;;;7.30;91.90;;;;;;8332058;28;20190;-78
2023/03/26 07:58:37;;;;;;;1.93;0.90;;;7.50;99.90;;;;;;8344604;28;20272;-79
2023/03/26 08:03:02;;;;;;;1.13;0.97;;;7.90;99.90;;;;;;8339664;28;20221;-78
2023/03/26 08:07:14;;;;;;;1.50;0.77;;;8.10;99.90;;;;;;8345639;28;20314;-79
2023/03/26 08:11:24;;;;;;;2.33;0.83;;;8.30;99.90;;;;;;8331323;28;20183;-78
2023/03/26 08:15:32;;;;;;;1.97;0.90;;;8.30;26.10;;;;;;8311692;28;20191;-78
2023/03/26 08:19:39;;;;;;;2.27;1.50;;;8.30;79.10;;;;;;8301237;28;20488;-78
2023/03/26 08:23:48;;;;;;;1.90;1.50;;;8.30;99.90;;;;;;8301848;28;20183;-79
2023/03/26 08:28:02;;;;;;;1.50;1.10;;;8.10;99.90;;;;;;8301324;28;20293;-78
2023/03/26 08:32:13;;;;;;;2.37;1.47;;;7.90;99.90;;;;;;8298184;28;20187;-79
2023/03/26 08:36:14;;;;;;;3.23;2.63;;;7.50;20.20;;;;;;8305146;28;20301;-79
2023/03/26 08:40:33;;;;;;;2.83;1.70;;;7.60;99.90;;;;;;8307053;28;20189;-79
2023/03/26 08:44:56;;;;;;;2.83;1.60;;;7.90;99.90;;;;;;8305873;28;20191;-79
2023/03/26 08:49:02;;;;;;;1.87;1.33;;;8.20;99.90;;;;;;8301829;28;20195;-78
2023/03/26 08:53:15;;;;;;;3.07;1.60;;;8.50;99.90;;;;;;8303855;28;20187;-79
2023/03/26 08:57:37;;;;;;;2.60;1.60;;;8.40;99.90;;;;;;8306253;28;20179;-77
2023/03/26 09:02:19;;;;;;;1.53;1.17;;;8.70;1.00;;;;;;8298215;28;20200;-79
2023/03/26 09:07:05;;;;;;;1.53;1.20;;;9.30;23.70;;;;;;8291476;28;20223;-78
2023/03/26 09:11:15;;;;;;;10.17;4.53;;;9.50;1.00;;;;;;8170367;29;20185;-78
2023/03/26 09:15:19;;;;;;;2.97;1.53;;;9.20;1.00;;;;;;8229035;28;20205;-79
2023/03/26 09:19:45;;;;;;;3.77;2.20;;;9.00;2.00;;;;;;8302326;28;20252;-79
2023/03/26 09:24:27;;;;;;;1.83;0.73;;;9.10;1.00;;;;;;8304620;28;20187;-79
2023/03/26 09:28:50;;;;;;;2.13;0.90;;;9.40;99.90;;;;;;8302124;28;20219;-78
2023/03/26 09:33:28;;;;;;;1.93;1.10;;;9.80;99.90;;;;;;8307669;28;20193;-80
2023/03/26 09:37:38;;;;;;;4.17;0.80;;;10.10;99.90;;;;;;8299763;28;20295;-79
2023/03/26 09:41:47;;;;;;;2.07;0.90;;;10.10;50.10;;;;;;8308679;28;20246;-79
2023/03/26 09:46:13;;;;;;;2.33;1.00;;;9.90;75.30;;;;;;8305786;28;20211;-78
2023/03/26 09:50:41;;;;;;;0.87;0.63;;;10.00;76.10;;;;;;8298907;28;20283;-79
2023/03/26 09:55:00;;;;;;;3.23;0.70;;;10.30;60.90;;;;;;8316537;28;20184;-79
2023/03/26 09:59:10;;;;;;;2.27;1.00;;;10.30;72.20;;;;;;8309112;28;20206;-78
2023/03/26 10:03:21;;;;;;;2.27;0.73;;;10.30;37.70;;;;;;8298967;28;20195;-79
2023/03/26 10:07:56;;;;;;;1.40;0.60;;;10.30;7.10;;;;;;8302978;28;20221;-79
2023/03/26 10:12:13;;;;;;;2.33;0.50;;;10.10;12.50;;;;;;8304799;28;20190;-78
2023/03/26 10:16:34;;;;;;;3.17;0.87;;;10.40;28.60;;;;;;8298528;28;20312;-78
2023/03/26 10:21:03;;;;;;;1.77;0.60;;;10.80;23.30;;;;;;8296363;28;20197;-78
2023/03/26 10:25:39;;;;;;;2.87;0.80;;;11.20;29.80;;;;;;8320380;28;20194;-77
2023/03/26 10:30:16;;;;;;;3.33;0.80;;;11.60;13.20;;;;;;8302016;28;20311;-78
2023/03/26 10:34:29;;;;;;;1.43;0.77;;;11.80;38.90;;;;;;8309729;28;20207;-79
2023/03/26 10:39:04;;;;;;;1.73;0.70;;;12.20;41.20;;;;;;8302718;28;20307;-78
2023/03/26 10:43:27;;;;;;;1.47;0.70;;;12.10;1.00;;;;;;8298625;28;20229;-78
2023/03/26 10:47:34;;;;;;;1.63;0.70;;;12.10;1.00;;;;;;8305956;28;20309;-79
2023/03/26 10:51:49;;;;;;;1.43;0.60;;;11.70;1.00;;;;;;8319644;28;20270;-79
2023/03/26 10:55:59;;;;;;;4.30;0.60;;;11.50;1.00;;;;;;8311543;28;20198;-79
2023/03/26 11:00:23;;;;;;;5.30;0.60;;;11.70;3.20;;;;;;8334433;28;20208;-79
2023/03/26 11:04:50;;;;;;;2.60;0.60;;;12.00;1.00;;;;;;8342748;28;20206;-79
2023/03/26 11:09:21;;;;;;;1.10;0.57;;;12.40;1.00;;;;;;8342763;28;20226;-79
2023/03/26 11:13:55;;;;;;;1.60;0.70;;;12.60;1.40;;;;;;8354048;28;20525;-79
2023/03/26 11:18:32;;;;;;;1.67;0.53;;;13.00;1.00;;;;;;8325800;28;20241;-77
2023/03/26 11:22:50;;;;;;;2.30;0.67;;;13.40;1.00;;;;;;8306510;28;20222;-79
2023/03/26 11:27:06;;;;;;;0.93;0.50;;;13.10;1.00;;;;;;8308848;28;20235;-79
2023/03/26 11:31:15;;;;;;;1.40;0.43;;;12.50;1.00;;;;;;8313367;28;20269;-79
2023/03/26 11:35:22;;;;;;;2.00;0.80;;;12.00;1.00;;;;;;8309133;28;20211;-79
2023/03/26 11:39:27;;;;;;;1.70;0.60;;;12.10;1.00;;;;;;8308177;28;20229;-78
2023/03/26 11:43:36;;;;;;;1.33;0.50;;;12.20;1.00;;;;;;8304837;28;20194;-79
2023/03/26 11:47:51;;;;;;;1.20;0.50;;;12.20;1.00;;;;;;8312006;28;20214;-79
2023/03/26 11:51:53;;;;;;;1.43;0.53;;;12.40;1.00;;;;;;8303253;28;20187;-79
2023/03/26 11:56:18;;;;;;;1.03;0.53;;;12.70;1.00;;;;;;8303861;28;20192;-78
2023/03/26 12:00:21;;;;;;;2.20;0.63;;;12.90;1.00;;;;;;8307523;28;20219;-79
2023/03/26 12:04:41;;;;;;;1.20;0.50;;;13.00;1.00;;;;;;8302463;28;20183;-79
2023/03/26 12:08:42;;;;;;;2.60;0.60;;;12.70;1.00;;;;;;8305821;28;20211;-79
2023/03/26 12:12:45;;;;;;;2.27;0.50;;;12.00;1.00;;;;;;8308719;28;20190;-77
2023/03/26 12:17:05;;;;;;;1.10;0.53;;;11.70;1.00;;;;;;8299565;28;20198;-79
2023/03/26 12:21:08;;;;;;;2.77;0.90;;;11.50;1.00;;;;;;8297287;28;20195;-78
2023/03/26 12:25:21;;;;;;;1.00;0.60;;;11.50;1.00;;;;;;8306310;28;20187;-78
2023/03/26 12:29:22;;;;;;;1.97;0.73;;;12.00;1.00;;;;;;8304661;28;20184;-78
2023/03/26 12:33:34;;;;;;;1.80;0.60;;;12.20;1.00;;;;;;8303839;28;20222;-79
2023/03/26 12:37:39;;;;;;;2.13;0.47;;;12.50;1.00;;;;;;8315066;28;20554;-78
2023/03/26 12:41:40;;;;;;;2.00;0.70;;;12.30;1.00;;;;;;8305237;28;20198;-78
2023/03/26 12:45:43;;;;;;;2.03;0.70;;;12.00;1.00;;;;;;8303800;28;20583;-78
2023/03/26 12:49:45;;;;;;;2.90;0.70;;;12.00;1.00;;;;;;8308366;28;20203;-79
2023/03/26 12:53:52;;;;;;;1.43;0.60;;;12.10;1.00;;;;;;8303513;28;20181;-79
2023/03/26 12:58:06;;;;;;;1.90;0.70;;;12.10;1.00;;;;;;8298732;28;20200;-78
2023/03/26 13:02:28;;;;;;;1.10;0.53;;;12.20;1.00;;;;;;8306189;28;20191;-78
2023/03/26 13:07:06;;;;;;;1.40;0.60;;;12.50;1.00;;;;;;8305713;28;20366;-78
2023/03/26 13:11:36;;;;;;;1.23;0.50;;;12.50;1.00;;;;;;8287822;28;20193;-77
2023/03/26 13:16:02;;;;;;;2.23;0.50;;;12.40;1.00;;;;;;8300394;28;20194;-78
2023/03/26 13:20:17;;;;;;;0.60;0.40;;;12.80;1.00;;;;;;8292322;28;20230;-78
2023/03/26 13:24:21;;;;;;;0.60;0.50;;;13.10;1.00;;;;;;8308635;28;20186;-78
2023/03/26 13:28:25;;;;;;;3.90;0.70;;;13.30;1.00;;;;;;8302480;28;20334;-79
2023/03/26 13:32:48;;;;;;;1.73;0.60;;;13.40;1.00;;;;;;8310404;28;20180;-78
2023/03/26 13:37:04;;;;;;;1.20;0.60;;;13.20;1.00;;;;;;8303391;28;20256;-78
2023/03/26 13:41:23;;;;;;;2.03;0.50;;;13.10;1.00;;;;;;8303061;28;20187;-79
2023/03/26 13:45:46;;;;;;;1.30;0.40;;;12.90;1.00;;;;;;8308572;28;20620;-79
2023/03/26 13:49:51;;;;;;;0.87;0.40;;;12.60;1.00;;;;;;8304009;28;20182;-79
2023/03/26 13:54:18;;;;;;;1.53;0.63;;;12.40;1.00;;;;;;8301458;28;20581;-79
2023/03/26 13:58:37;;;;;;;0.73;0.50;;;12.20;1.00;;;;;;8308611;28;20236;-78
2023/03/26 14:02:44;;;;;;;1.53;0.60;;;11.80;1.00;;;;;;8313170;28;20183;-78
2023/03/26 14:07:00;;;;;;;1.30;0.50;;;11.70;1.00;;;;;;8316016;28;20271;-79
2023/03/26 14:11:10;;;;;;;0.63;0.47;;;11.70;1.00;;;;;;8320294;28;20193;-78
2023/03/26 14:15:26;;;;;;;1.17;0.53;;;11.90;1.00;;;;;;8333236;28;20195;-78
2023/03/26 14:19:32;;;;;;;1.17;0.47;;;12.10;1.00;;;;;;8351605;28;20528;-79
2023/03/26 14:23:58;;;;;;;0.50;0.40;;;12.10;1.00;;;;;;8343557;28;20284;-78
2023/03/26 14:28:12;;;;;;;1.03;0.40;;;12.20;1.00;;;;;;8338980;28;20225;-79
2023/03/26 14:32:35;;;;;;;1.87;0.80;;;12.40;1.00;;;;;;8350457;28;20206;-79
2023/03/26 14:37:08;;;;;;;1.17;0.70;;;12.60;1.00;;;;;;8311173;28;20230;-79
2023/03/26 14:41:23;;;;;;;1.50;1.03;;;12.30;1.00;;;;;;8307055;28;20202;-78
2023/03/26 14:45:45;;;;;;;3.07;0.53;;;12.10;1.00;;;;;;8308667;28;20578;-77
2023/03/26 14:50:11;;;;;;;1.57;0.50;;;12.20;1.00;;;;;;8302610;28;20761;-78
2023/03/26 14:54:22;;;;;;;2.53;0.87;;;12.10;1.00;;;;;;8306451;28;20217;-78
2023/03/26 14:58:42;;;;;;;1.80;0.60;;;12.00;1.00;;;;;;8309225;28;20184;-79
2023/03/26 15:03:08;;;;;;;1.67;0.50;;;12.10;1.00;;;;;;8310548;28;20195;-78
2023/03/26 15:07:21;;;;;;;2.77;0.83;;;12.30;1.00;;;;;;8310104;28;20218;-78
2023/03/26 15:11:50;;;;;;;1.30;0.40;;;12.40;1.00;;;;;;8304270;28;20246;-79
2023/03/26 15:16:05;;;;;;;0.63;0.43;;;12.30;1.00;;;;;;8305992;28;20237;-79
2023/03/26 15:20:26;;;;;;;2.07;0.50;;;12.20;1.00;;;;;;8306599;28;20203;-78
2023/03/26 15:24:45;;;;;;;1.80;0.57;;;12.20;1.00;;;;;;8306159;28;20191;-78
2023/03/26 15:28:58;;;;;;;1.03;0.47;;;12.30;1.00;;;;;;8302789;28;20229;-78
2023/03/26 15:33:18;;;;;;;1.00;0.50;;;12.40;1.00;;;;;;8306209;28;20269;-79
2023/03/26 15:38:02;;;;;;;3.00;0.63;;;12.30;1.00;;;;;;8308119;28;20199;-77
2023/03/26 15:42:15;;;;;;;2.23;0.50;;;12.30;1.00;;;;;;8302790;28;20183;-78
2023/03/26 15:46:47;;;;;;;1.57;0.53;;;12.20;1.00;;;;;;8309671;28;20249;-77
2023/03/26 15:50:54;;;;;;;0.70;0.40;;;12.10;1.00;;;;;;8308572;28;20188;-79
2023/03/26 15:55:17;;;;;;;1.60;0.63;;;12.00;1.00;;;;;;8307341;28;20285;-78
2023/03/26 15:59:42;;;;;;;1.70;0.50;;;12.00;1.00;;;;;;8302716;28;20280;-78
2023/03/26 16:04:01;;;;;;;1.47;0.60;;;12.00;1.00;;;;;;8311981;28;20599;-78
2023/03/26 16:08:17;;;;;;;1.80;0.60;;;11.90;1.00;;;;;;8308131;28;20222;-79
2023/03/26 16:12:34;;;;;;;1.67;0.80;;;11.80;1.00;;;;;;8320919;28;20197;-78
2023/03/26 16:16:51;;;;;;;1.03;0.50;;;11.80;1.00;;;;;;8303438;28;20198;-79
2023/03/26 16:21:02;;;;;;;0.60;0.40;;;11.80;1.00;;;;;;8308668;28;20202;-78
2023/03/26 16:25:29;;;;;;;1.40;0.60;;;11.70;1.00;;;;;;8303420;28;20195;-79
2023/03/26 16:29:30;;;;;;;2.33;0.50;;;11.60;1.00;;;;;;8307509;28;20244;-79
2023/03/26 16:33:47;;;;;;;0.40;0.37;;;11.50;1.00;;;;;;8312109;28;20230;-78
2023/03/26 16:38:03;;;;;;;1.17;0.60;;;11.30;1.00;;;;;;8305983;28;20190;-78
2023/03/26 16:42:22;;;;;;;0.83;0.50;;;11.10;1.00;;;;;;8309327;28;20200;-79
2023/03/26 16:46:41;;;;;;;0.70;0.53;;;10.90;1.00;;;;;;8311304;28;20218;-78
2023/03/26 16:50:52;;;;;;;0.90;0.50;;;10.80;7.40;;;;;;8302618;28;20197;-78
2023/03/26 16:55:19;;;;;;;0.80;0.60;;;10.60;30.30;;;;;;8307818;28;20182;-78
2023/03/26 16:59:45;;;;;;;0.87;0.40;;;10.40;68.30;;;;;;8305400;28;20213;-79
2023/03/26 17:03:56;;;;;;;0.70;0.50;;;10.20;99.90;;;;;;8300410;28;20186;-78
2023/03/26 17:08:06;;;;;;;0.70;0.60;;;10.00;99.90;;;;;;8317539;28;20296;-78
2023/03/26 17:12:17;;;;;;;1.57;0.70;;;9.90;99.90;;;;;;8306697;28;20242;-78
2023/03/26 17:16:28;;;;;;;0.90;0.60;;;9.70;99.90;;;;;;8302001;28;20191;-78
2023/03/26 17:20:42;;;;;;;1.70;0.60;;;9.50;99.90;;;;;;8305438;28;20205;-79
2023/03/26 17:25:10;;;;;;;2.70;0.67;;;9.40;99.90;;;;;;8301731;28;20190;-78
2023/03/26 17:29:26;;;;;;;1.43;0.63;;;9.30;99.90;;;;;;8300989;28;20247;-79
2023/03/26 17:33:35;;;;;;;1.83;1.33;;;9.20;99.90;;;;;;8308383;28;20191;-79
2023/03/26 17:37:46;;;;;;;1.93;1.33;;;9.10;99.90;;;;;;8316730;28;20205;-79
2023/03/26 17:41:53;;;;;;;1.37;0.80;;;9.00;99.90;;;;;;8316913;28;20198;-78
2023/03/26 17:45:55;;;;;;;1.77;1.00;;;9.00;99.90;;;;;;8313413;28;20260;-83
2023/03/26 17:50:06;;;;;;;2.17;0.90;;;9.00;99.90;;;;;;8320932;28;20218;-81
2023/03/26 17:54:17;;;;;;;2.87;1.40;;;8.90;99.90;;;;;;8327231;28;20288;-83
2023/03/26 17:58:35;;;;;;;2.73;1.27;;;8.70;99.90;;;;;;8309954;28;20198;-84
2023/03/26 18:02:43;;;;;;;2.43;1.40;;;8.60;99.90;;;;;;8325070;28;20282;-81
2023/03/26 18:07:14;;;;;;;1.57;1.10;;;8.50;99.90;;;;;;8302862;28;20298;-82
2023/03/26 18:11:24;;;;;;;2.43;1.60;;;8.40;99.90;;;;;;8311253;28;20187;-83
2023/03/26 18:15:34;;;;;;;2.50;1.37;;;8.30;99.90;;;;;;8309723;28;20206;-83
2023/03/26 18:20:02;;;;;;;2.20;1.50;;;8.20;99.90;;;;;;8304632;28;20195;-83
2023/03/26 18:24:06;;;;;;;2.70;1.70;;;8.20;99.90;;;;;;8307569;28;20179;-83
2023/03/26 18:28:13;;;;;;;4.67;2.47;;;8.10;99.90;;;;;;8317032;28;20232;-83
2023/03/26 18:32:21;;;;;;;3.80;1.80;;;8.10;99.90;;;;;;8305709;28;20254;-82
2023/03/26 18:36:26;;;;;;;3.30;2.13;;;8.00;99.90;;;;;;8307940;28;20282;-83
2023/03/26 18:40:40;;;;;;;4.93;2.57;;;8.00;99.90;;;;;;8307882;28;20182;-82
2023/03/26 18:44:40;;;;;;;5.27;2.93;;;8.00;1.00;;;;;;8314158;28;20187;-83
2023/03/26 18:48:42;;;;;;;4.73;2.73;;;7.90;1.00;;;;;;8315359;28;20217;-81
2023/03/26 18:52:44;;;;;;;3.93;2.40;;;7.80;1.00;;;;;;8325541;28;20178;-82
2023/03/26 18:56:47;;;;;;;5.10;3.17;;;7.80;1.00;;;;;;8307031;28;20182;-82
2023/03/26 19:00:51;;;;;;;5.77;3.10;;;7.80;1.00;;;;;;8308305;28;20190;-82
2023/03/26 19:04:53;;;;;;;5.20;3.20;;;7.70;1.00;;;;;;8312876;28;20190;-82
2023/03/26 19:08:55;;;;;;;5.13;3.03;;;7.70;1.00;;;;;;8314805;28;20206;-82
2023/03/26 19:13:03;;;;;;;4.80;3.00;;;7.60;17.60;;;;;;8302588;28;20187;-83
2023/03/26 19:17:05;;;;;;;7.13;3.53;;;7.60;53.30;;;;;;8324048;28;20325;-82
2023/03/26 19:21:06;;;;;;;6.97;3.77;;;7.60;97.90;;;;;;8311480;28;20229;-83
2023/03/26 19:25:19;;;;;;;4.77;3.13;;;7.50;99.90;;;;;;8307244;28;20186;-82
2023/03/26 19:29:27;;;;;;;6.30;3.63;;;7.50;99.90;;;;;;8311278;28;20192;-83
2023/03/26 19:33:38;;;;;;;5.97;4.07;;;7.50;99.90;;;;;;8304875;28;20183;-82
2023/03/26 19:37:50;;;;;;;5.90;3.13;;;7.50;99.90;;;;;;8303511;28;20234;-82
2023/03/26 19:41:52;;;;;;;5.10;3.50;;;7.50;99.90;;;;;;8305016;28;20211;-83
2023/03/26 19:45:56;;;;;;;5.20;3.70;;;7.50;99.90;;;;;;8305723;28;20262;-81
2023/03/26 19:50:22;;;;;;;6.97;3.87;;;7.40;99.90;;;;;;8307883;28;20190;-83
2023/03/26 19:54:24;;;;;;;6.43;3.73;;;7.40;99.90;;;;;;8295241;28;20183;-82
2023/03/26 19:58:25;;;;;;;9.00;4.00;;;7.40;99.90;;;;;;8312491;28;20246;-82
2023/03/26 20:02:27;;;;;;;7.23;3.30;;;7.30;99.90;;;;;;8307215;28;20194;-83
2023/03/26 20:06:28;;;;;;;5.37;3.13;;;7.30;99.90;;;;;;8304431;28;20198;-82
2023/03/26 20:10:29;;;;;;;4.43;2.50;;;7.30;99.90;;;;;;8306474;28;20672;-83
2023/03/26 20:14:31;;;;;;;4.50;2.43;;;7.30;99.90;;;;;;8311869;28;20206;-82
2023/03/26 20:18:33;;;;;;;3.37;2.23;;;7.20;99.90;;;;;;8323638;28;20246;-82
2023/03/26 20:22:34;;;;;;;3.00;1.93;;;7.20;92.30;;;;;;8307604;28;20257;-82
2023/03/26 20:26:34;;;;;;;6.47;2.07;;;7.20;85.00;;;;;;8300776;28;20222;-82
2023/03/26 20:30:35;;;;;;;4.00;2.10;;;7.20;64.90;;;;;;8305404;28;20179;-83
2023/03/26 20:34:37;;;;;;;3.63;1.90;;;7.20;93.60;;;;;;8308762;28;20214;-82
2023/03/26 20:38:39;;;;;;;4.13;2.33;;;7.10;99.90;;;;;;8309526;28;20198;-82
2023/03/26 20:42:43;;;;;;;5.40;2.07;;;7.00;99.90;;;;;;8302819;28;20183;-83
2023/03/26 20:46:46;;;;;;;3.97;2.10;;;7.00;99.90;;;;;;8312016;28;20470;-83
2023/03/26 20:50:47;;;;;;;2.57;1.73;;;6.90;99.90;;;;;;8312082;28;20672;-82
2023/03/26 20:54:49;;;;;;;2.33;1.70;;;6.80;99.90;;;;;;8316485;28;20187;-84
2023/03/26 20:58:53;;;;;;;2.97;1.80;;;6.80;99.90;;;;;;8326408;28;20187;-82
2023/03/26 21:02:55;;;;;;;3.13;1.70;;;6.70;1.00;;;;;;8321045;28;20195;-84
2023/03/26 21:06:57;;;;;;;4.43;2.17;;;6.70;1.00;;;;;;8316965;28;20250;-80
2023/03/26 21:11:00;;;;;;;4.00;1.87;;;6.70;1.00;;;;;;8303800;28;20235;-82
2023/03/26 21:15:02;;;;;;;3.40;2.10;;;6.70;98.30;;;;;;8306934;28;20185;-82
2023/03/26 21:19:03;;;;;;;4.10;2.23;;;6.70;99.90;;;;;;8301758;28;20194;-82
2023/03/26 21:23:23;;;;;;;4.20;1.93;;;6.70;99.90;;;;;;8308007;28;20179;-82
2023/03/26 21:27:30;;;;;;;3.57;2.00;;;6.60;99.90;;;;;;8302294;28;20416;-82
2023/03/26 21:31:35;;;;;;;3.67;2.17;;;6.50;99.90;;;;;;8302513;28;20267;-82
2023/03/26 21:35:37;;;;;;;3.37;2.33;;;6.40;99.90;;;;;;8301637;28;20245;-82
2023/03/26 21:39:38;;;;;;;4.27;2.33;;;6.40;99.90;;;;;;8307945;28;20180;-82
2023/03/26 21:43:38;;;;;;;7.63;2.37;;;6.30;1.00;;;;;;8309895;28;20175;-83
2023/03/26 21:47:40;;;;;;;5.07;2.40;;;6.40;99.90;;;;;;8306315;28;20207;-83
2023/03/26 21:51:42;;;;;;;2.97;2.50;;;6.40;99.90;;;;;;8296455;28;20235;-83
2023/03/26 21:55:49;;;;;;;5.57;2.67;;;6.50;1.00;;;;;;8301825;28;20191;-83
2023/03/26 22:00:00;;;;;;;4.90;2.47;;;6.50;1.00;;;;;;8308912;28;20187;-83